createdAt,value
2022-10-18T00:01:07.144Z,99179.35
2022-10-18T00:06:14.319Z,99180.59
2022-10-18T00:08:42.392Z,99179.71
2022-10-18T00:11:10.521Z,99178.10
2022-10-18T00:13:38.590Z,99175.09
2022-10-18T00:16:14.375Z,99174.19
2022-10-18T00:18:43.761Z,99171.50
2022-10-18T00:21:16.043Z,99173.15
2022-10-18T00:23:47.005Z,99171.83
2022-10-18T00:26:16.548Z,99169.92
2022-10-18T00:28:46.245Z,99167.48
2022-10-18T00:31:19.168Z,99165.77
2022-10-18T00:33:51.294Z,99167.42
2022-10-18T00:36:19.896Z,99164.40
2022-10-18T00:38:49.175Z,99164.01
2022-10-18T00:41:20.635Z,99161.03
2022-10-18T00:43:55.535Z,99160.51
2022-10-18T00:46:25.046Z,99157.38
2022-10-18T00:48:55.792Z,99156.17
2022-10-18T00:51:29.010Z,99159.66
2022-10-18T00:53:57.553Z,99160.34
2022-10-18T00:56:26.589Z,99162.45
2022-10-18T00:58:55.056Z,99162.81
2022-10-18T01:01:27.477Z,99159.71
2022-10-18T01:03:57.758Z,99155.56
2022-10-18T01:06:28.669Z,99150.38
2022-10-18T01:09:21.246Z,99151.24
2022-10-18T01:12:30.897Z,99151.21
2022-10-18T01:15:28.236Z,99146.09
2022-10-18T01:17:56.750Z,99142.16
2022-10-18T01:20:39.840Z,99141.20
2022-10-18T01:23:19.725Z,99139.20
2022-10-18T01:26:26.752Z,99140.81
2022-10-18T01:28:57.589Z,99140.11
2022-10-18T01:31:35.154Z,99139.78
2022-10-18T01:34:08.264Z,99138.61
2022-10-18T01:36:40.671Z,99136.39
2022-10-18T01:39:17.138Z,99132.81
2022-10-18T01:41:48.208Z,99130.81
2022-10-18T01:44:24.062Z,99125.90
2022-10-18T01:46:55.346Z,99126.38
2022-10-18T01:49:25.799Z,99122.72
2022-10-18T01:51:53.766Z,99123.81
2022-10-18T01:54:31.109Z,99117.09
2022-10-18T01:57:01.998Z,99115.91
2022-10-18T02:00:00.080Z,99116.79
2022-10-18T02:02:40.238Z,99112.78
2022-10-18T02:05:26.622Z,99110.88
2022-10-18T02:08:22.057Z,99109.23
2022-10-18T02:10:57.127Z,99109.34
2022-10-18T02:13:29.814Z,99108.78
2022-10-18T02:16:05.115Z,99103.13
2022-10-18T02:18:48.595Z,99105.77
2022-10-18T02:21:19.591Z,99102.01
2022-10-18T02:23:48.802Z,99101.86
2022-10-18T02:26:17.222Z,99096.70
2022-10-18T02:28:46.044Z,99096.27
2022-10-18T02:31:23.123Z,99097.89
2022-10-18T02:33:56.077Z,99098.84
2022-10-18T02:36:31.867Z,99095.59
2022-10-18T02:39:04.900Z,99093.91
2022-10-18T02:41:34.057Z,99095.86
2022-10-18T02:44:02.697Z,99096.46
2022-10-18T02:46:31.192Z,99097.58
2022-10-18T02:48:59.568Z,99095.45
2022-10-18T02:51:27.963Z,99098.04
2022-10-18T02:53:56.194Z,99099.40
2022-10-18T02:56:24.599Z,99099.73
2022-10-18T02:58:52.905Z,99101.46
2022-10-18T03:01:21.288Z,99104.44
2022-10-18T03:03:49.801Z,99104.59
2022-10-18T03:06:18.238Z,99102.61
2022-10-18T03:08:46.655Z,99100.57
2022-10-18T03:11:14.547Z,99096.29
2022-10-18T03:13:42.596Z,99095.34
2022-10-18T03:16:10.799Z,99094.45
2022-10-18T03:18:38.934Z,99093.62
2022-10-18T03:21:08.210Z,99092.23
2022-10-18T03:23:37.203Z,99092.21
2022-10-18T03:26:05.405Z,99091.47
2022-10-18T03:28:33.405Z,99087.41
2022-10-18T03:31:02.597Z,99089.90
2022-10-18T03:33:32.300Z,99088.21
2022-10-18T03:36:01.007Z,99084.96
2022-10-18T03:38:29.177Z,99082.60
2022-10-18T03:40:57.260Z,99082.80
2022-10-18T03:43:25.387Z,99081.79
2022-10-18T03:45:53.558Z,99081.15
2022-10-18T03:48:21.904Z,99082.79
2022-10-18T03:50:50.196Z,99085.52
2022-10-18T03:53:18.593Z,99085.48
2022-10-18T03:55:54.291Z,99086.55
2022-10-18T03:58:23.303Z,99086.41
2022-10-18T04:00:55.947Z,99086.10
2022-10-18T04:03:24.645Z,99092.08
2022-10-18T04:05:53.027Z,99090.38
2022-10-18T04:08:21.335Z,99089.55
2022-10-18T04:10:49.604Z,99087.90
2022-10-18T04:13:18.446Z,99090.04
2022-10-18T04:15:46.774Z,99085.55
2022-10-18T04:18:14.852Z,99081.40
2022-10-18T04:20:43.303Z,99080.52
2022-10-18T04:23:11.521Z,99080.30
2022-10-18T04:25:39.865Z,99080.45
2022-10-18T04:28:08.047Z,99077.27
2022-10-18T04:30:36.264Z,99083.34
2022-10-18T04:33:04.621Z,99079.88
2022-10-18T04:35:32.967Z,99078.02
2022-10-18T04:38:01.344Z,99076.71
2022-10-18T04:40:30.708Z,99073.48
2022-10-18T04:42:59.161Z,99075.15
2022-10-18T04:45:27.534Z,99073.91
2022-10-18T04:47:55.604Z,99076.34
2022-10-18T04:50:23.614Z,99074.59
2022-10-18T04:52:53.775Z,99080.21
2022-10-18T04:55:22.030Z,99078.03
2022-10-18T04:57:50.141Z,99076.91
2022-10-18T05:00:18.220Z,99078.92
2022-10-18T05:02:46.523Z,99077.98
2022-10-18T05:05:15.104Z,99073.05
2022-10-18T05:07:43.899Z,99072.95
2022-10-18T05:10:12.354Z,99070.14
2022-10-18T05:12:40.704Z,99067.52
2022-10-18T05:15:09.671Z,99066.14
2022-10-18T05:17:38.160Z,99067.36
2022-10-18T05:20:06.573Z,99064.65
2022-10-18T05:22:34.734Z,99063.56
2022-10-18T05:25:03.197Z,99066.29
2022-10-18T05:27:31.451Z,99067.99
2022-10-18T05:30:01.380Z,99066.07
2022-10-18T05:32:33.396Z,99064.72
2022-10-18T05:35:01.925Z,99062.95
2022-10-18T05:37:30.537Z,99059.38
2022-10-18T05:39:58.917Z,99060.27
2022-10-18T05:42:26.995Z,99059.98
2022-10-18T05:44:55.738Z,99061.23
2022-10-18T05:47:24.451Z,99060.86
2022-10-18T05:49:52.755Z,99064.88
2022-10-18T05:52:21.654Z,99066.83
2022-10-18T05:54:49.851Z,99070.91
2022-10-18T05:57:18.364Z,99072.42
2022-10-18T05:59:47.419Z,99068.26
2022-10-18T06:02:15.845Z,99068.39
2022-10-18T06:04:44.278Z,99060.54
2022-10-18T06:07:12.749Z,99055.71
2022-10-18T06:09:42.064Z,99056.41
2022-10-18T06:12:10.845Z,99052.15
2022-10-18T06:14:39.094Z,99048.58
2022-10-18T06:17:07.456Z,99042.28
2022-10-18T06:19:36.384Z,99040.84
2022-10-18T06:22:04.905Z,99037.09
2022-10-18T06:24:33.676Z,99034.52
2022-10-18T06:27:08.499Z,99032.66
2022-10-18T06:29:38.940Z,99031.77
2022-10-18T06:32:08.252Z,99028.61
2022-10-18T06:34:36.674Z,99028.04
2022-10-18T06:37:05.319Z,99022.06
2022-10-18T06:39:34.577Z,99020.29
2022-10-18T06:42:03.333Z,99020.08
2022-10-18T06:44:34.110Z,99021.43
2022-10-18T06:47:02.496Z,99021.58
2022-10-18T06:49:30.691Z,99021.20
2022-10-18T06:52:00.203Z,99019.80
2022-10-18T06:54:29.424Z,99015.19
2022-10-18T06:57:05.344Z,99016.52
2022-10-18T06:59:36.935Z,99012.02
2022-10-18T07:02:06.905Z,99011.20
2022-10-18T07:04:35.996Z,99012.16
2022-10-18T07:07:04.646Z,99010.68
2022-10-18T07:09:33.334Z,99007.79
2022-10-18T07:12:01.631Z,99008.45
2022-10-18T07:14:30.830Z,99004.79
2022-10-18T07:17:00.656Z,99003.44
2022-10-18T07:19:29.248Z,99000.46
2022-10-18T07:21:58.284Z,99002.96
2022-10-18T07:24:26.966Z,98996.40
2022-10-18T07:26:55.807Z,98992.61
2022-10-18T07:29:24.896Z,98990.42
2022-10-18T07:31:53.559Z,98989.15
2022-10-18T07:34:24.281Z,98991.36
2022-10-18T07:36:52.880Z,98991.14
2022-10-18T07:39:22.006Z,98988.09
2022-10-18T07:41:51.317Z,98983.34
2022-10-18T07:44:20.495Z,98983.98
2022-10-18T07:46:51.194Z,98987.40
2022-10-18T07:49:19.583Z,98986.78
2022-10-18T07:51:49.672Z,98988.39
2022-10-18T07:54:18.580Z,98985.08
2022-10-18T07:56:47.494Z,98983.69
2022-10-18T07:59:16.146Z,98983.34
2022-10-18T08:01:45.956Z,98981.95
2022-10-18T08:04:16.487Z,98977.23
2022-10-18T08:06:45.118Z,98977.23
2022-10-18T08:09:13.983Z,98978.10
2022-10-18T08:11:42.702Z,98977.92
2022-10-18T08:14:11.833Z,98973.73
2022-10-18T08:16:40.932Z,98970.21
2022-10-18T08:19:10.601Z,98967.75
2022-10-18T08:21:39.609Z,98964.23
2022-10-18T08:24:08.671Z,98958.09
2022-10-18T08:26:37.462Z,98952.14
2022-10-18T08:29:24.085Z,98951.45
2022-10-18T08:31:55.224Z,98952.84
2022-10-18T08:34:24.297Z,98956.33
2022-10-18T08:36:52.879Z,98951.05
2022-10-18T08:39:21.870Z,98947.88
2022-10-18T08:42:08.479Z,98944.00
2022-10-18T08:44:45.420Z,98941.70
2022-10-18T08:47:18.903Z,98939.56
2022-10-18T08:49:55.183Z,98935.83
2022-10-18T08:52:56.470Z,98934.72
2022-10-18T08:55:39.498Z,98935.02
2022-10-18T08:58:18.045Z,98930.05
2022-10-18T09:00:50.951Z,98925.66
2022-10-18T09:03:30.644Z,98922.63
2022-10-18T09:06:23.429Z,98922.02
2022-10-18T09:09:16.468Z,98921.21
2022-10-18T09:12:17.352Z,98918.66
2022-10-18T09:15:01.571Z,98916.64
2022-10-18T09:17:52.156Z,98919.54
2022-10-18T09:20:26.667Z,98919.66
2022-10-18T09:23:16.350Z,98915.93
2022-10-18T09:26:02.034Z,98911.63
2022-10-18T09:28:39.619Z,98911.19
2022-10-18T09:31:20.084Z,98909.20
2022-10-18T09:34:13.781Z,98906.48
2022-10-18T09:36:45.462Z,98904.30
2022-10-18T09:39:23.548Z,98898.41
2022-10-18T09:42:02.093Z,98893.65
2022-10-18T09:44:36.768Z,98895.02
2022-10-18T09:47:21.489Z,98892.66
2022-10-18T09:49:56.486Z,98889.14
2022-10-18T09:52:37.786Z,98886.27
2022-10-18T09:55:17.905Z,98880.27
2022-10-18T09:57:53.123Z,98876.08
2022-10-18T10:00:26.765Z,98869.51
2022-10-18T10:03:00.650Z,98864.41
2022-10-18T10:05:29.053Z,98860.04
2022-10-18T10:08:00.313Z,98853.02
2022-10-18T10:10:30.995Z,98845.59
2022-10-18T10:13:23.399Z,98838.98
2022-10-18T10:16:03.984Z,98835.36
2022-10-18T10:18:36.731Z,98835.30
2022-10-18T10:21:08.526Z,98830.70
2022-10-18T10:23:39.456Z,98821.88
2022-10-18T10:26:22.071Z,98817.06
2022-10-18T10:28:51.897Z,98812.20
2022-10-18T10:31:29.485Z,98805.39
2022-10-18T10:34:13.509Z,98802.33
2022-10-18T10:36:55.768Z,98798.34
2022-10-18T10:39:25.372Z,98793.35
2022-10-18T10:41:58.370Z,98791.70
2022-10-18T10:44:31.007Z,98783.65
2022-10-18T10:47:00.508Z,98778.09
2022-10-18T10:49:46.872Z,98775.17
2022-10-18T10:52:36.619Z,98770.85
2022-10-18T10:57:58.925Z,98757.47
2022-10-18T11:00:43.972Z,98752.73
2022-10-18T11:03:28.931Z,98748.57
2022-10-18T11:06:01.072Z,98748.67
2022-10-18T11:08:39.306Z,98741.44
2022-10-18T11:11:28.029Z,98736.89
2022-10-18T11:14:25.685Z,98733.23
2022-10-18T11:17:14.696Z,98723.91
2022-10-18T11:20:09.859Z,98715.64
2022-10-18T11:22:51.211Z,98710.41
2022-10-18T11:25:25.434Z,98707.66
2022-10-18T11:28:03.664Z,98705.92
2022-10-18T11:30:50.473Z,98702.10
2022-10-18T11:34:03.579Z,98697.10
2022-10-18T11:36:56.132Z,98692.50
2022-10-18T11:40:02.404Z,98678.60
2022-10-18T11:42:54.547Z,98678.99
2022-10-18T11:45:40.584Z,98676.27
2022-10-18T11:48:46.676Z,98667.58
2022-10-18T11:51:33.930Z,98660.18
2022-10-18T11:54:22.007Z,98655.02
2022-10-18T11:57:07.496Z,98654.81
2022-10-18T11:59:45.604Z,98649.52
2022-10-18T12:02:50.469Z,98645.20
2022-10-18T12:05:24.313Z,98635.55
2022-10-18T12:07:55.930Z,98632.13
2022-10-18T12:10:37.825Z,98628.06
2022-10-18T12:13:19.438Z,98620.78
2022-10-18T12:15:48.516Z,98618.94
2022-10-18T12:18:21.670Z,98615.16
2022-10-18T12:20:53.608Z,98611.83
2022-10-18T12:23:45.252Z,98609.02
2022-10-18T12:26:14.470Z,98608.43
2022-10-18T12:29:03.472Z,98604.17
2022-10-18T12:31:35.232Z,98603.74
2022-10-18T12:34:27.752Z,98604.08
2022-10-18T12:39:57.662Z,98592.93
2022-10-18T12:42:32.639Z,98586.80
2022-10-18T12:45:16.831Z,98583.11
2022-10-18T12:47:45.314Z,98584.13
2022-10-18T12:50:34.992Z,98584.00
2022-10-18T12:53:04.109Z,98583.25
2022-10-18T12:55:40.225Z,98583.65
2022-10-18T12:58:15.041Z,98586.44
2022-10-18T13:00:43.922Z,98582.69
2022-10-18T13:03:12.216Z,98580.70
2022-10-18T13:05:54.743Z,98575.78
2022-10-18T13:08:38.925Z,98568.30
2022-10-18T13:11:10.929Z,98562.70
2022-10-18T13:14:02.353Z,98559.88
2022-10-18T13:16:30.876Z,98554.02
2022-10-18T13:19:14.721Z,98553.80
2022-10-18T13:21:58.412Z,98552.05
2022-10-18T13:24:45.686Z,98550.50
2022-10-18T13:27:36.599Z,98543.64
2022-10-18T13:30:28.083Z,98540.44
2022-10-18T13:33:19.639Z,98534.93
2022-10-18T13:35:55.090Z,98532.09
2022-10-18T13:38:23.470Z,98529.44
2022-10-18T13:41:07.269Z,98525.74
2022-10-18T13:43:54.496Z,98521.38
2022-10-18T13:46:26.104Z,98519.80
2022-10-18T13:49:20.329Z,98517.84
2022-10-18T13:52:32.199Z,98512.20
2022-10-18T13:55:23.885Z,98509.34
2022-10-18T13:57:58.903Z,98502.84
2022-10-18T14:00:52.247Z,98500.06
2022-10-18T14:06:27.150Z,98490.89
2022-10-18T14:09:45.143Z,98486.41
2022-10-18T14:12:31.270Z,98485.89
2022-10-18T14:15:25.015Z,98485.88
2022-10-18T14:18:13.117Z,98482.10
2022-10-18T14:21:01.568Z,98482.01
2022-10-18T14:23:45.307Z,98481.09
2022-10-18T14:26:17.136Z,98479.09
2022-10-18T14:29:05.852Z,98473.77
2022-10-18T14:31:35.371Z,98473.47
2022-10-18T14:34:04.839Z,98477.55
2022-10-18T14:36:41.389Z,98477.14
2022-10-18T14:39:21.389Z,98473.65
2022-10-18T14:41:53.574Z,98475.13
2022-10-18T14:44:26.913Z,98472.00
2022-10-18T14:46:55.894Z,98475.91
2022-10-18T14:49:26.030Z,98476.25
2022-10-18T14:51:58.849Z,98470.05
2022-10-18T14:54:34.988Z,98470.90
2022-10-18T14:57:07.900Z,98467.17
2022-10-18T14:59:58.918Z,98464.14
2022-10-18T15:02:30.499Z,98460.77
2022-10-18T15:05:11.083Z,98456.52
2022-10-18T15:07:40.035Z,98452.10
2022-10-18T15:10:11.463Z,98447.30
2022-10-18T15:13:04.505Z,98446.45
2022-10-18T15:15:33.604Z,98445.49
2022-10-18T15:18:02.482Z,98442.09
2022-10-18T15:20:33.480Z,98442.45
2022-10-18T15:23:33.219Z,98442.23
2022-10-18T15:26:08.547Z,98438.80
2022-10-18T15:28:51.625Z,98432.86
2022-10-18T15:31:27.918Z,98433.61
2022-10-18T15:34:11.029Z,98433.50
2022-10-18T15:36:39.587Z,98430.23
2022-10-18T15:39:13.914Z,98427.65
2022-10-18T15:42:03.534Z,98429.48
2022-10-18T15:44:51.537Z,98430.83
2022-10-18T15:47:21.494Z,98431.70
2022-10-18T15:49:59.151Z,98436.55
2022-10-18T15:52:39.420Z,98431.52
2022-10-18T15:55:30.381Z,98433.20
2022-10-18T15:58:17.090Z,98426.96
2022-10-18T16:00:47.141Z,98426.59
2022-10-18T16:03:18.143Z,98430.22
2022-10-18T16:05:46.713Z,98428.89
2022-10-18T16:08:30.787Z,98426.28
2022-10-18T16:11:00.066Z,98424.41
2022-10-18T16:13:28.653Z,98425.30
2022-10-18T16:15:57.181Z,98426.14
2022-10-18T16:18:26.347Z,98426.80
2022-10-18T16:20:54.515Z,98429.91
2022-10-18T16:23:28.767Z,98431.14
2022-10-18T16:25:57.245Z,98430.42
2022-10-18T16:28:26.726Z,98432.69
2022-10-18T16:31:00.973Z,98434.94
2022-10-18T16:33:31.136Z,98432.30
2022-10-18T16:35:59.678Z,98430.42
2022-10-18T16:38:36.400Z,98438.02
2022-10-18T16:41:06.324Z,98438.94
2022-10-18T16:43:35.422Z,98438.98
2022-10-18T16:46:05.117Z,98439.35
2022-10-18T16:48:33.288Z,98441.69
2022-10-18T16:51:02.140Z,98442.25
2022-10-18T16:53:30.123Z,98439.80
2022-10-18T16:56:00.887Z,98441.88
2022-10-18T16:58:30.889Z,98445.86
2022-10-18T17:01:01.011Z,98445.97
2022-10-18T17:03:31.031Z,98447.28
2022-10-18T17:05:59.371Z,98448.03
2022-10-18T17:08:28.341Z,98444.91
2022-10-18T17:10:59.573Z,98446.52
2022-10-18T17:13:27.947Z,98449.48
2022-10-18T17:15:56.672Z,98452.13
2022-10-18T17:18:30.753Z,98455.10
2022-10-18T17:21:03.774Z,98455.83
2022-10-18T17:23:32.406Z,98456.53
2022-10-18T17:26:08.519Z,98454.98
2022-10-18T17:28:58.187Z,98456.79
2022-10-18T17:31:26.686Z,98458.47
2022-10-18T17:33:55.547Z,98457.70
2022-10-18T17:36:23.679Z,98454.30
2022-10-18T17:38:53.139Z,98453.70
2022-10-18T17:41:21.680Z,98455.23
2022-10-18T17:43:50.023Z,98452.70
2022-10-18T17:46:18.273Z,98454.00
2022-10-18T17:48:48.053Z,98454.05
2022-10-18T17:51:17.278Z,98454.09
2022-10-18T17:53:45.568Z,98454.63
2022-10-18T17:56:14.652Z,98458.84
2022-10-18T17:58:47.075Z,98459.92
2022-10-18T18:01:17.899Z,98455.90
2022-10-18T18:03:49.833Z,98455.58
2022-10-18T18:06:34.177Z,98452.27
2022-10-18T18:09:07.520Z,98448.77
2022-10-18T18:11:38.115Z,98441.27
2022-10-18T18:14:10.331Z,98436.55
2022-10-18T18:16:41.209Z,98431.34
2022-10-18T18:19:10.634Z,98430.51
2022-10-18T18:21:40.627Z,98427.05
2022-10-18T18:24:10.212Z,98425.73
2022-10-18T18:26:40.060Z,98418.81
2022-10-18T18:29:09.257Z,98418.91
2022-10-18T18:31:39.965Z,98419.91
2022-10-18T18:34:11.633Z,98420.14
2022-10-18T18:36:40.245Z,98411.80
2022-10-18T18:39:16.245Z,98407.64
2022-10-18T18:41:44.349Z,98407.88
2022-10-18T18:44:12.846Z,98408.45
2022-10-18T18:46:41.083Z,98404.45
2022-10-18T18:49:10.932Z,98398.15
2022-10-18T18:51:40.674Z,98397.98
2022-10-18T18:54:11.006Z,98401.33
2022-10-18T18:56:39.199Z,98401.35
2022-10-18T18:59:07.986Z,98399.27
2022-10-18T19:01:38.258Z,98397.02
2022-10-18T19:04:08.562Z,98397.73
2022-10-18T19:06:39.694Z,98399.52
2022-10-18T19:09:18.567Z,98398.16
2022-10-18T19:11:48.273Z,98403.46
2022-10-18T19:14:16.917Z,98402.11
2022-10-18T19:16:57.620Z,98399.05
2022-10-18T19:19:30.813Z,98396.14
2022-10-18T19:22:01.221Z,98393.77
2022-10-18T19:24:30.449Z,98390.84
2022-10-18T19:27:09.765Z,98389.85
2022-10-18T19:29:39.995Z,98391.83
2022-10-18T19:32:12.406Z,98388.70
2022-10-18T19:34:41.555Z,98384.89
2022-10-18T19:37:13.625Z,98387.00
2022-10-18T19:39:42.458Z,98388.77
2022-10-18T19:42:15.728Z,98387.90
2022-10-18T19:44:47.154Z,98391.39
2022-10-18T19:47:16.332Z,98392.82
2022-10-18T19:49:44.641Z,98394.92
2022-10-18T19:52:13.109Z,98394.92
2022-10-18T19:54:41.390Z,98395.98
2022-10-18T19:57:09.624Z,98388.64
2022-10-18T19:59:37.704Z,98386.90
2022-10-18T20:02:05.963Z,98390.08
2022-10-18T20:04:35.259Z,98388.52
2022-10-18T20:07:03.630Z,98383.85
2022-10-18T20:09:32.098Z,98386.52
2022-10-18T20:12:00.067Z,98387.45
2022-10-18T20:14:28.131Z,98384.02
2022-10-18T20:16:56.126Z,98383.03
2022-10-18T20:19:24.257Z,98379.39
2022-10-18T20:21:55.922Z,98380.14
2022-10-18T20:24:23.806Z,98379.98
2022-10-18T20:29:20.974Z,98372.17
2022-10-18T20:31:48.879Z,98373.08
2022-10-18T20:34:17.011Z,98368.38
2022-10-18T20:36:44.900Z,98365.61
2022-10-18T20:39:12.748Z,98362.64
2022-10-18T20:41:41.811Z,98362.29
2022-10-18T20:44:14.075Z,98364.58
2022-10-18T20:46:43.253Z,98362.48
2022-10-18T20:49:14.991Z,98362.16
2022-10-18T20:51:43.235Z,98358.50
2022-10-18T20:54:11.983Z,98363.58
2022-10-18T20:56:39.876Z,98362.55
2022-10-18T20:59:10.098Z,98358.89
2022-10-18T21:01:39.628Z,98353.16
2022-10-18T21:04:10.006Z,98350.91
2022-10-18T21:06:43.917Z,98354.63
2022-10-18T21:09:18.289Z,98359.35
2022-10-18T21:11:49.930Z,98355.68
2022-10-18T21:14:20.136Z,98352.20
2022-10-18T21:16:49.557Z,98350.10
2022-10-18T21:19:23.048Z,98348.55
2022-10-18T21:21:54.520Z,98348.38
2022-10-18T21:24:25.190Z,98346.64
2022-10-18T21:26:54.862Z,98343.85
2022-10-18T21:29:27.133Z,98342.30
2022-10-18T21:31:59.468Z,98338.48
2022-10-18T21:34:27.509Z,98335.52
2022-10-18T21:36:55.428Z,98329.06
2022-10-18T21:41:57.114Z,98323.35
2022-10-18T21:44:25.309Z,98325.11
2022-10-18T21:46:53.238Z,98324.27
2022-10-18T21:49:25.081Z,98320.45
2022-10-18T21:51:53.231Z,98318.05
2022-10-18T21:54:21.227Z,98318.46
2022-10-18T21:56:49.159Z,98318.84
2022-10-18T21:59:17.216Z,98319.94
2022-10-18T22:01:45.941Z,98314.73
2022-10-18T22:04:25.173Z,98307.45
2022-10-18T22:06:53.306Z,98302.58
2022-10-18T22:09:22.190Z,98298.25
2022-10-18T22:11:53.285Z,98295.30
2022-10-18T22:14:22.757Z,98292.16
2022-10-18T22:16:52.096Z,98291.66
2022-10-18T22:19:20.752Z,98290.80
2022-10-18T22:21:49.510Z,98290.27
2022-10-18T22:24:18.318Z,98288.52
2022-10-18T22:26:47.271Z,98286.09
2022-10-18T22:29:18.050Z,98286.61
2022-10-18T22:31:49.472Z,98284.00
2022-10-18T22:34:21.181Z,98281.21
2022-10-18T22:36:49.199Z,98281.04
2022-10-18T22:39:17.627Z,98275.98
2022-10-18T22:41:46.679Z,98270.24
2022-10-18T22:44:15.590Z,98266.75
2022-10-18T22:46:43.849Z,98267.11
2022-10-18T22:49:12.358Z,98262.27
2022-10-18T22:51:40.941Z,98263.33
2022-10-18T22:54:09.889Z,98259.87
2022-10-18T22:56:37.906Z,98259.02
2022-10-18T22:59:05.885Z,98258.34
2022-10-18T23:01:34.039Z,98256.95
2022-10-18T23:04:03.375Z,98258.53
2022-10-18T23:06:34.060Z,98255.92
2022-10-18T23:09:06.451Z,98257.33
2022-10-18T23:11:36.024Z,98256.45
2022-10-18T23:14:06.091Z,98255.41
2022-10-18T23:16:34.321Z,98252.80
2022-10-18T23:19:03.112Z,98251.22
2022-10-18T23:21:31.088Z,98245.82
2022-10-18T23:23:58.992Z,98246.52
2022-10-18T23:26:28.214Z,98243.90
2022-10-18T23:28:56.579Z,98244.10
2022-10-18T23:31:31.176Z,98243.59
2022-10-18T23:34:02.316Z,98244.11
2022-10-18T23:36:31.771Z,98242.39
2022-10-18T23:38:59.883Z,98239.09
2022-10-18T23:41:27.985Z,98234.55
2022-10-18T23:43:56.183Z,98234.58
2022-10-18T23:46:24.833Z,98234.77
2022-10-18T23:48:52.993Z,98229.04
2022-10-18T23:51:21.039Z,98227.99
2022-10-18T23:53:49.163Z,98228.52
2022-10-18T23:56:17.398Z,98228.70
2022-10-18T23:58:46.057Z,98230.63
